Terminal Aerodrome Forecast
Issued by NWS Wilmington, OH

Current Version | Previous Version | Graphics & Text | Print | Product List | Glossary On
Versions: 1 2 3 4 5 6 7 8 9 10 11 12 13 14 15 16 17 18 19 20 21 22
185
FTUS41 KILN 271125
TAFCVG
TAF
KCVG 271125Z 2712/2818 00000KT 3SM BR VV002
     FM271500 14004KT P6SM VCTS SCT025CB BKN100
     FM272200 16005KT P6SM -SHRA VCTS BKN025CB BKN090
     FM281100 VRB03KT 1/4SM -SHRA OVC008
     FM281400 31005KT P6SM BKN012=

USA.gov is the U.S. government's official web portal to all federal, state and local government web resources and services.